createdAt,value
2023-04-15T00:02:21.421Z,9.37
2023-04-15T00:04:56.033Z,12.40
2023-04-15T00:07:26.766Z,11.33
2023-04-15T00:09:58.129Z,10.90
2023-04-15T00:12:29.518Z,7.83
2023-04-15T00:15:00.452Z,10.57
2023-04-15T00:17:31.625Z,8.83
2023-04-15T00:20:03.199Z,8.23
2023-04-15T00:22:34.505Z,9.03
2023-04-15T00:25:06.448Z,12.10
2023-04-15T00:27:37.483Z,10.53
2023-04-15T00:30:10.803Z,12.63
2023-04-15T00:32:42.529Z,9.97
2023-04-15T00:35:13.268Z,9.53
2023-04-15T00:37:46.039Z,10.10
2023-04-15T00:40:18.207Z,13.57
2023-04-15T00:42:49.374Z,10.83
2023-04-15T00:45:20.757Z,12.60
2023-04-15T00:47:52.317Z,13.43
2023-04-15T00:50:23.581Z,11.70
2023-04-15T00:52:54.632Z,11.43
2023-04-15T00:55:25.906Z,10.83
2023-04-15T00:57:57.812Z,11.93
2023-04-15T01:00:29.161Z,10.43
2023-04-15T01:03:00.508Z,9.43
2023-04-15T01:05:33.276Z,8.60
2023-04-15T01:08:04.812Z,10.33
2023-04-15T01:10:36.450Z,12.63
2023-04-15T01:13:07.544Z,8.47
2023-04-15T01:15:39.224Z,8.50
2023-04-15T01:18:10.598Z,9.03
2023-04-15T01:20:42.600Z,9.63
2023-04-15T01:23:13.963Z,10.83
2023-04-15T01:25:45.162Z,23.20
2023-04-15T01:28:16.198Z,28.37
2023-04-15T01:30:47.470Z,9.87
2023-04-15T01:33:18.217Z,10.00
2023-04-15T01:35:48.812Z,10.77
2023-04-15T01:38:19.513Z,10.10
2023-04-15T01:40:50.216Z,10.53
2023-04-15T01:43:20.864Z,13.40
2023-04-15T01:45:51.549Z,14.33
2023-04-15T01:48:22.287Z,8.97
2023-04-15T01:50:53.929Z,11.03
2023-04-15T01:53:24.959Z,12.40
2023-04-15T01:55:55.866Z,8.93
2023-04-15T01:58:27.348Z,11.17
2023-04-15T02:00:59.120Z,9.93
2023-04-15T02:03:31.616Z,9.73
2023-04-15T02:06:02.697Z,9.60
2023-04-15T02:08:33.676Z,9.87
2023-04-15T02:11:04.407Z,7.90
2023-04-15T02:13:35.094Z,8.13
2023-04-15T02:16:07.804Z,8.00
2023-04-15T02:18:38.523Z,9.60
2023-04-15T02:21:09.458Z,7.47
2023-04-15T02:23:40.195Z,9.17
2023-04-15T02:26:10.857Z,8.53
2023-04-15T02:28:41.559Z,7.83
2023-04-15T02:31:12.285Z,8.87
2023-04-15T02:33:42.955Z,9.00
2023-04-15T02:36:13.699Z,9.23
2023-04-15T02:38:44.339Z,48.73
2023-04-15T02:41:15.132Z,27.37
2023-04-15T02:43:45.773Z,16.03
2023-04-15T02:46:17.108Z,22.97
2023-04-15T02:48:47.882Z,19.70
2023-04-15T02:51:20.613Z,10.43
2023-04-15T02:53:51.957Z,11.47
2023-04-15T02:56:23.785Z,18.67
2023-04-15T02:58:56.040Z,23.63
2023-04-15T03:01:27.455Z,20.13
2023-04-15T03:03:58.381Z,12.67
2023-04-15T03:06:29.103Z,18.03
2023-04-15T03:09:00.471Z,16.53
2023-04-15T03:11:32.000Z,11.67
2023-04-15T03:14:02.606Z,10.00
2023-04-15T03:16:33.328Z,12.70
2023-04-15T03:19:04.165Z,10.73
2023-04-15T03:21:35.490Z,10.67
2023-04-15T03:24:06.990Z,12.97
2023-04-15T03:26:38.055Z,13.53
2023-04-15T03:29:09.006Z,13.63
2023-04-15T03:31:40.149Z,13.43
2023-04-15T03:34:11.514Z,135.87
2023-04-15T03:36:42.620Z,259.67
2023-04-15T03:39:13.777Z,53.90
2023-04-15T03:41:44.716Z,48.97
2023-04-15T03:44:15.805Z,24.23
2023-04-15T03:46:46.717Z,13.33
2023-04-15T03:49:17.870Z,12.70
2023-04-15T03:51:49.087Z,12.93
2023-04-15T03:54:19.977Z,11.50
2023-04-15T03:56:50.957Z,9.90
2023-04-15T03:59:21.936Z,11.60
2023-04-15T04:01:53.238Z,11.83
2023-04-15T04:04:24.476Z,11.93
2023-04-15T04:06:55.666Z,9.73
2023-04-15T04:09:26.714Z,11.00
2023-04-15T04:11:58.120Z,13.27
2023-04-15T04:14:30.180Z,11.00
2023-04-15T04:17:01.306Z,13.90
2023-04-15T04:19:32.380Z,12.63
2023-04-15T04:22:03.445Z,13.07
2023-04-15T04:24:34.455Z,11.03
2023-04-15T04:27:05.699Z,11.23
2023-04-15T04:29:36.479Z,13.03
2023-04-15T04:34:45.783Z,11.07
2023-04-15T04:37:17.435Z,10.13
2023-04-15T04:39:48.332Z,9.30
2023-04-15T04:42:19.274Z,10.67
2023-04-15T04:44:50.228Z,10.23
2023-04-15T04:47:21.539Z,9.83
2023-04-15T04:49:52.230Z,10.30
2023-04-15T04:52:22.862Z,8.93
2023-04-15T04:54:53.596Z,8.30
2023-04-15T04:57:24.269Z,8.77
2023-04-15T04:59:55.204Z,7.47
2023-04-15T05:02:27.613Z,10.40
2023-04-15T05:04:59.025Z,8.23
2023-04-15T05:07:30.801Z,8.57
2023-04-15T05:10:01.900Z,8.03
2023-04-15T05:12:32.600Z,9.73
2023-04-15T05:15:03.377Z,8.50
2023-04-15T05:17:35.406Z,7.33
2023-04-15T05:20:07.918Z,7.17
2023-04-15T05:22:39.094Z,6.87
2023-04-15T05:25:11.152Z,6.67
2023-04-15T05:27:42.236Z,6.73
2023-04-15T05:30:14.070Z,6.67
2023-04-15T05:32:45.023Z,157.83
2023-04-15T05:35:16.063Z,525.63
2023-04-15T05:37:47.467Z,617.57
2023-04-15T05:40:18.948Z,210.73
2023-04-15T05:42:49.720Z,418.73
2023-04-15T05:45:20.750Z,794.40
2023-04-15T05:47:53.125Z,413.27
2023-04-15T05:50:23.976Z,367.20
2023-04-15T05:52:54.991Z,811.40
2023-04-15T05:55:26.026Z,742.63
2023-04-15T05:57:57.645Z,191.23
2023-04-15T06:00:29.407Z,126.67
2023-04-15T06:03:01.589Z,51.80
2023-04-15T06:05:36.270Z,51.00
2023-04-15T06:08:08.570Z,166.75
2023-04-15T06:10:40.061Z,12.03
2023-04-15T06:13:12.150Z,10.50
2023-04-15T06:18:20.386Z,10.90
2023-04-15T06:20:52.151Z,9.03
2023-04-15T06:26:02.672Z,7.67
2023-04-15T06:28:32.989Z,6.90
2023-04-15T06:31:04.105Z,7.13
2023-04-15T06:33:35.388Z,6.53
2023-04-15T06:36:06.631Z,7.67
2023-04-15T06:38:37.763Z,8.90
2023-04-15T06:41:09.215Z,9.30
2023-04-15T06:43:40.605Z,199.27
2023-04-15T06:46:11.935Z,572.60
2023-04-15T06:48:43.325Z,689.93
2023-04-15T06:51:15.308Z,599.37
2023-04-15T06:53:46.404Z,771.20
2023-04-15T06:56:18.051Z,744.63
2023-04-15T06:58:49.271Z,214.40
2023-04-15T07:01:21.161Z,106.80
2023-04-15T07:03:52.817Z,179.47
2023-04-15T07:06:23.953Z,22.20
2023-04-15T07:08:55.799Z,11.67
2023-04-15T07:11:28.190Z,13.43
2023-04-15T07:14:01.134Z,54.73
2023-04-15T07:16:32.594Z,12.30
2023-04-15T07:19:04.228Z,10.27
2023-04-15T07:21:35.572Z,10.27
2023-04-15T07:24:07.669Z,10.40
2023-04-15T07:26:38.689Z,5.90
2023-04-15T07:29:09.838Z,2.70
2023-04-15T07:31:43.954Z,2.53
2023-04-15T07:34:17.978Z,1.00
2023-04-15T07:36:52.689Z,1.40
2023-04-15T07:39:25.490Z,3.47
2023-04-15T07:41:59.559Z,1.45
2023-04-15T07:44:32.241Z,0.97
2023-04-15T07:47:07.076Z,2.53
2023-04-15T07:49:39.988Z,0.70
2023-04-15T07:52:13.033Z,1.90
2023-04-15T07:54:45.771Z,2.00
2023-04-15T07:57:19.421Z,6.33
2023-04-15T07:59:53.725Z,1.40
2023-04-15T08:05:08.102Z,1.83
2023-04-15T08:07:41.393Z,2.53
2023-04-15T08:10:14.736Z,1.50
2023-04-15T08:12:49.928Z,2.00
2023-04-15T08:15:22.734Z,3.27
2023-04-15T08:17:55.563Z,2.90
2023-04-15T08:20:29.164Z,3.57
2023-04-15T08:23:01.617Z,7.57
2023-04-15T08:25:33.884Z,1.57
2023-04-15T08:28:08.111Z,3.30
2023-04-15T08:30:39.681Z,2.57
2023-04-15T08:35:48.292Z,4.47
2023-04-15T08:38:20.138Z,1.50
2023-04-15T08:40:52.206Z,1.73
2023-04-15T08:43:27.494Z,1.37
2023-04-15T08:46:01.281Z,1.30
2023-04-15T08:48:34.374Z,3.93
2023-04-15T08:51:06.580Z,1.10
2023-04-15T08:53:38.885Z,1.40
2023-04-15T08:56:11.609Z,2.70
2023-04-15T08:58:43.247Z,1.17
2023-04-15T09:01:14.980Z,4.97
2023-04-15T09:03:47.551Z,3.57
2023-04-15T09:06:21.984Z,1.60
2023-04-15T09:08:54.210Z,1.03
2023-04-15T09:11:25.764Z,1.27
2023-04-15T09:13:58.300Z,0.93
2023-04-15T09:19:23.954Z,0.93
2023-04-15T09:21:58.963Z,0.70
2023-04-15T09:24:38.851Z,1.43
2023-04-15T09:27:11.547Z,0.60
2023-04-15T09:29:45.480Z,3.50
2023-04-15T09:32:18.000Z,3.90
2023-04-15T09:34:50.098Z,0.40
2023-04-15T09:37:32.100Z,1.13
2023-04-15T09:39:56.774Z,0.97
2023-04-15T09:42:30.133Z,1.07
2023-04-15T09:45:11.717Z,0.87
2023-04-15T09:47:43.999Z,1.03
2023-04-15T09:50:15.855Z,1.77
2023-04-15T09:52:47.607Z,7.23
2023-04-15T09:55:19.732Z,4.20
2023-04-15T09:57:50.841Z,1.67
2023-04-15T10:00:22.356Z,2.13
2023-04-15T10:02:54.416Z,0.60
2023-04-15T10:05:26.682Z,1.83
2023-04-15T10:07:58.223Z,1.20
2023-04-15T10:10:29.684Z,2.02
2023-04-15T10:13:01.411Z,5.33
2023-04-15T10:15:33.669Z,3.23
2023-04-15T10:18:09.358Z,0.70
2023-04-15T10:20:41.770Z,1.13
2023-04-15T10:23:13.994Z,1.43
2023-04-15T10:25:46.576Z,0.60
2023-04-15T10:28:19.967Z,1.47
2023-04-15T10:30:52.422Z,1.50
2023-04-15T10:33:25.996Z,2.53
2023-04-15T10:35:59.172Z,0.77
2023-04-15T10:38:37.751Z,1.80
2023-04-15T10:41:22.811Z,1.50
2023-04-15T10:43:55.467Z,3.40
2023-04-15T10:46:29.866Z,2.00
2023-04-15T10:49:02.618Z,3.00
2023-04-15T10:51:35.294Z,1.43
2023-04-15T10:54:07.913Z,0.40
2023-04-15T10:56:39.189Z,2.07
2023-04-15T10:59:10.968Z,0.70
2023-04-15T11:01:55.353Z,1.07
2023-04-15T11:05:02.703Z,2.00
2023-04-15T11:07:42.116Z,0.73
2023-04-15T11:10:59.018Z,1.40
2023-04-15T11:13:34.482Z,1.40
2023-04-15T11:16:06.688Z,1.20
2023-04-15T11:18:38.142Z,0.70
2023-04-15T11:21:11.110Z,1.67
2023-04-15T11:23:44.461Z,0.90
2023-04-15T11:26:17.479Z,0.30
2023-04-15T11:28:49.497Z,0.40
2023-04-15T11:31:22.933Z,0.70
2023-04-15T11:34:01.723Z,0.33
2023-04-15T11:36:34.184Z,0.40
2023-04-15T11:39:06.611Z,0.43
2023-04-15T11:41:39.749Z,0.50
2023-04-15T11:44:21.246Z,0.67
2023-04-15T11:46:53.903Z,3.50
2023-04-15T11:49:33.785Z,3.50
2023-04-15T11:52:06.659Z,0.40
2023-04-15T11:54:38.500Z,0.47
2023-04-15T11:57:10.563Z,0.77
2023-04-15T11:59:46.443Z,0.43
2023-04-15T12:02:17.921Z,0.70
2023-04-15T12:05:08.354Z,1.00
2023-04-15T12:08:01.313Z,3.67
2023-04-15T12:10:33.958Z,0.40
2023-04-15T12:13:09.819Z,1.63
2023-04-15T12:15:42.104Z,2.27
2023-04-15T12:18:21.074Z,0.53
2023-04-15T12:20:52.596Z,0.50
2023-04-15T12:23:24.023Z,0.40
2023-04-15T12:26:23.345Z,0.37
2023-04-15T12:31:35.785Z,2.57
2023-04-15T12:34:09.491Z,0.70
2023-04-15T12:36:40.436Z,2.13
2023-04-15T12:39:11.746Z,0.70
2023-04-15T12:41:42.937Z,0.80
2023-04-15T12:44:33.242Z,1.57
2023-04-15T12:47:04.393Z,1.23
2023-04-15T12:49:35.857Z,1.50
2023-04-15T12:52:07.563Z,2.20
2023-04-15T12:54:38.820Z,0.60
2023-04-15T12:57:09.983Z,1.17
2023-04-15T12:59:41.256Z,1.47
2023-04-15T13:02:12.748Z,1.63
2023-04-15T13:04:44.154Z,1.60
2023-04-15T13:07:15.865Z,1.10
2023-04-15T13:09:47.028Z,1.67
2023-04-15T13:12:18.188Z,4.03
2023-04-15T13:14:50.184Z,0.57
2023-04-15T13:17:22.439Z,0.60
2023-04-15T13:19:54.676Z,0.50
2023-04-15T13:22:27.540Z,0.97
2023-04-15T13:25:00.302Z,8.60
2023-04-15T13:27:32.909Z,0.40
2023-04-15T13:30:05.702Z,1.07
2023-04-15T13:32:37.087Z,3.13
2023-04-15T13:35:09.885Z,2.25
2023-04-15T13:37:41.465Z,1.07
2023-04-15T13:40:15.289Z,1.70
2023-04-15T13:42:47.502Z,0.23
2023-04-15T13:45:20.138Z,0.30
2023-04-15T13:47:52.207Z,0.57
2023-04-15T13:50:23.944Z,0.20
2023-04-15T13:52:55.138Z,0.40
2023-04-15T13:55:27.129Z,0.33
2023-04-15T13:58:07.532Z,0.20
2023-04-15T14:00:38.806Z,0.40
2023-04-15T14:03:10.199Z,0.20
2023-04-15T14:05:41.534Z,0.50
2023-04-15T14:08:12.831Z,0.83
2023-04-15T14:10:45.479Z,1.30
2023-04-15T14:13:16.712Z,1.33
2023-04-15T14:15:47.935Z,3.50
2023-04-15T14:18:19.053Z,0.47
2023-04-15T14:20:50.160Z,1.70
2023-04-15T14:23:21.392Z,3.50
2023-04-15T14:25:53.061Z,0.40
2023-04-15T14:28:24.070Z,0.30
2023-04-15T14:30:54.962Z,0.43
2023-04-15T14:33:25.940Z,1.03
2023-04-15T14:35:57.315Z,0.50
2023-04-15T14:38:28.214Z,0.33
2023-04-15T14:40:59.786Z,0.40
2023-04-15T14:43:30.593Z,0.43
2023-04-15T14:46:01.744Z,0.30
2023-04-15T14:48:35.703Z,0.43
2023-04-15T14:51:06.728Z,0.40
2023-04-15T14:53:37.538Z,0.17
2023-04-15T14:56:09.533Z,0.57
2023-04-15T14:58:40.265Z,0.43
2023-04-15T15:01:11.270Z,0.60
2023-04-15T15:03:43.267Z,0.50
2023-04-15T15:06:14.616Z,1.30
2023-04-15T15:08:45.758Z,0.42
2023-04-15T15:11:17.279Z,0.87
2023-04-15T15:13:48.491Z,0.73
2023-04-15T15:16:19.905Z,0.50
2023-04-15T15:18:51.453Z,1.20
2023-04-15T15:24:11.626Z,0.50
2023-04-15T15:26:42.888Z,0.60
2023-04-15T15:31:50.317Z,0.63
2023-04-15T15:36:58.758Z,0.43
2023-04-15T15:39:30.777Z,0.57
2023-04-15T15:42:02.068Z,4.23
2023-04-15T15:47:10.167Z,0.73
2023-04-15T15:49:41.199Z,0.60
2023-04-15T15:52:12.312Z,1.00
2023-04-15T15:54:43.863Z,1.00
2023-04-15T15:57:15.227Z,0.73
2023-04-15T15:59:46.591Z,0.60
2023-04-15T16:02:18.761Z,0.70
2023-04-15T16:04:50.549Z,0.93
2023-04-15T16:07:21.626Z,0.80
2023-04-15T16:09:52.787Z,1.17
2023-04-15T16:12:24.932Z,1.27
2023-04-15T16:17:32.699Z,1.20
2023-04-15T16:20:05.722Z,1.13
2023-04-15T16:22:37.444Z,0.93
2023-04-15T16:25:10.733Z,0.90
2023-04-15T16:27:57.230Z,1.70
2023-04-15T16:32:54.505Z,0.63
2023-04-15T16:35:25.628Z,0.70
2023-04-15T16:37:56.725Z,1.60
2023-04-15T16:40:27.801Z,10.10
2023-04-15T16:42:59.095Z,0.80
2023-04-15T16:45:30.122Z,1.07
2023-04-15T16:48:01.383Z,1.33
2023-04-15T16:50:32.493Z,2.43
2023-04-15T16:53:03.687Z,0.90
2023-04-15T16:55:34.671Z,0.60
2023-04-15T16:58:08.466Z,1.30
2023-04-15T17:00:39.727Z,0.80
2023-04-15T17:03:11.208Z,0.90
2023-04-15T17:05:43.315Z,0.70
2023-04-15T17:08:14.357Z,1.53
2023-04-15T17:10:45.681Z,3.30
2023-04-15T17:13:16.731Z,0.87
2023-04-15T17:15:47.917Z,3.43
2023-04-15T17:18:19.039Z,4.27
2023-04-15T17:20:50.082Z,3.20
2023-04-15T17:23:21.665Z,2.17
2023-04-15T17:25:53.233Z,2.13
2023-04-15T17:28:24.416Z,0.90
2023-04-15T17:30:55.812Z,1.73
2023-04-15T17:33:58.881Z,1.53
2023-04-15T17:36:18.828Z,2.10
2023-04-15T17:38:49.880Z,1.20
2023-04-15T17:41:21.041Z,5.40
2023-04-15T17:43:52.275Z,1.70
2023-04-15T17:46:23.506Z,2.07
2023-04-15T17:48:54.667Z,7.53
2023-04-15T17:51:26.428Z,2.87
2023-04-15T17:53:57.865Z,4.87
2023-04-15T17:56:29.402Z,4.73
2023-04-15T17:59:02.635Z,4.00
2023-04-15T18:01:33.874Z,3.67
2023-04-15T18:04:05.206Z,5.07
2023-04-15T18:06:37.012Z,2.23
2023-04-15T18:09:08.836Z,3.73
2023-04-15T18:11:40.573Z,1.30
2023-04-15T18:14:12.619Z,1.40
2023-04-15T18:16:44.582Z,2.67
2023-04-15T18:19:16.125Z,3.70
2023-04-15T18:21:48.353Z,9.23
2023-04-15T18:24:19.761Z,9.43
2023-04-15T18:26:50.935Z,5.03
2023-04-15T18:29:22.197Z,5.00
2023-04-15T18:31:53.896Z,7.37
2023-04-15T18:34:26.045Z,1.40
2023-04-15T18:36:59.080Z,1.37
2023-04-15T18:39:31.634Z,2.03
2023-04-15T18:42:04.336Z,2.35
2023-04-15T18:44:35.885Z,2.83
2023-04-15T18:47:06.985Z,1.50
2023-04-15T18:49:38.257Z,2.03
2023-04-15T18:54:47.830Z,2.27
2023-04-15T18:57:23.097Z,2.00
2023-04-15T18:59:51.623Z,2.63
2023-04-15T19:02:22.961Z,8.57
2023-04-15T19:04:54.258Z,3.53
2023-04-15T19:07:26.966Z,2.70
2023-04-15T19:09:59.741Z,4.93
2023-04-15T19:12:31.029Z,2.87
2023-04-15T19:15:03.024Z,2.03
2023-04-15T19:17:34.931Z,3.90
2023-04-15T19:20:07.683Z,5.00
2023-04-15T19:22:39.847Z,4.33
2023-04-15T19:25:12.017Z,2.03
2023-04-15T19:27:43.331Z,6.03
2023-04-15T19:30:14.871Z,4.33
2023-04-15T19:32:46.203Z,2.07
2023-04-15T19:35:17.769Z,2.17
2023-04-15T19:37:50.193Z,2.10
2023-04-15T19:40:21.328Z,2.07
2023-04-15T19:42:52.628Z,2.40
2023-04-15T19:45:23.680Z,6.97
2023-04-15T19:47:55.570Z,3.77
2023-04-15T19:50:27.914Z,2.57
2023-04-15T19:52:58.804Z,2.63
2023-04-15T19:55:29.893Z,2.83
2023-04-15T19:58:00.822Z,2.70
2023-04-15T20:00:32.009Z,2.90
2023-04-15T20:03:02.942Z,3.37
2023-04-15T20:05:34.214Z,3.33
2023-04-15T20:08:05.428Z,5.17
2023-04-15T20:10:37.401Z,3.20
2023-04-15T20:13:08.457Z,2.57
2023-04-15T20:15:39.663Z,3.73
2023-04-15T20:18:10.801Z,3.40
2023-04-15T20:20:43.001Z,3.00
2023-04-15T20:23:13.897Z,3.40
2023-04-15T20:25:46.047Z,4.50
2023-04-15T20:28:18.158Z,4.33
2023-04-15T20:30:49.133Z,6.27
2023-04-15T20:33:20.092Z,3.37
2023-04-15T20:35:51.038Z,3.10
2023-04-15T20:38:22.564Z,3.80
2023-04-15T20:40:53.430Z,5.03
2023-04-15T20:43:25.779Z,3.10
2023-04-15T20:46:02.153Z,3.07
2023-04-15T20:48:30.646Z,2.87
2023-04-15T20:51:01.989Z,2.63
2023-04-15T20:53:35.671Z,2.27
2023-04-15T20:56:07.779Z,3.30
2023-04-15T20:58:39.578Z,3.73
2023-04-15T21:01:10.688Z,2.52
2023-04-15T21:03:41.934Z,2.20
2023-04-15T21:06:13.011Z,2.03
2023-04-15T21:08:44.210Z,1.67
2023-04-15T21:11:28.345Z,1.93
2023-04-15T21:13:48.447Z,1.40
2023-04-15T21:16:19.402Z,1.50
2023-04-15T21:18:50.630Z,1.83
2023-04-15T21:21:21.577Z,2.03
2023-04-15T21:23:52.506Z,1.80
2023-04-15T21:29:01.030Z,2.27
2023-04-15T21:31:32.123Z,1.50
2023-04-15T21:34:03.188Z,2.03
2023-04-15T21:36:34.676Z,2.70
2023-04-15T21:39:06.011Z,1.50
2023-04-15T21:41:37.730Z,1.80
2023-04-15T21:44:09.218Z,3.43
2023-04-15T21:46:40.180Z,3.80
2023-04-15T21:49:11.257Z,4.00
2023-04-15T21:51:43.335Z,5.07
2023-04-15T21:54:14.383Z,5.43
2023-04-15T21:56:46.134Z,4.70
2023-04-15T21:59:16.987Z,3.87
2023-04-15T22:01:48.231Z,5.10
2023-04-15T22:04:19.530Z,4.20
2023-04-15T22:06:50.646Z,4.53
2023-04-15T22:09:21.708Z,3.27
2023-04-15T22:11:52.832Z,4.57
2023-04-15T22:14:23.758Z,4.87
2023-04-15T22:16:54.899Z,4.37
2023-04-15T22:19:45.494Z,5.30
2023-04-15T22:22:17.579Z,5.03
2023-04-15T22:24:50.241Z,3.97
2023-04-15T22:27:21.306Z,4.17
2023-04-15T22:29:52.183Z,3.30
2023-04-15T22:32:23.262Z,2.20
2023-04-15T22:34:54.270Z,3.40
2023-04-15T22:37:25.343Z,3.07
2023-04-15T22:39:56.449Z,2.80
2023-04-15T22:42:27.425Z,3.30
2023-04-15T22:44:58.485Z,3.33
2023-04-15T22:47:29.492Z,2.50
2023-04-15T22:50:00.484Z,2.73
2023-04-15T22:52:31.630Z,5.23
2023-04-15T22:55:02.613Z,3.17
2023-04-15T22:57:35.123Z,3.77
2023-04-15T23:00:07.514Z,4.33
2023-04-15T23:02:38.783Z,3.30
2023-04-15T23:05:13.061Z,3.40
2023-04-15T23:07:44.124Z,4.97
2023-04-15T23:10:15.108Z,4.07
2023-04-15T23:12:46.013Z,4.20
2023-04-15T23:15:17.019Z,5.53
2023-04-15T23:17:48.153Z,4.77
2023-04-15T23:20:19.620Z,7.03
2023-04-15T23:22:50.702Z,4.90
2023-04-15T23:25:22.406Z,5.30
2023-04-15T23:27:53.500Z,8.47
2023-04-15T23:30:24.625Z,5.60
2023-04-15T23:32:55.845Z,5.83
2023-04-15T23:35:27.592Z,5.50
2023-04-15T23:37:58.636Z,5.67
2023-04-15T23:40:29.619Z,5.97
2023-04-15T23:43:00.608Z,5.50
2023-04-15T23:45:33.334Z,6.03
2023-04-15T23:48:04.298Z,5.70
2023-04-15T23:50:35.688Z,5.80
2023-04-15T23:53:06.686Z,5.20
2023-04-15T23:55:38.042Z,6.33
2023-04-15T23:58:09.014Z,6.97
